Time;durP1;ratioP1;P1;durP2;ratioP2;P2;SDS_P1;SDS_P2;PMS_P1;PMS_P2;Temp;Humidity;BMP_temperature;BMP_pressure;BME280_temperature;BME280_humidity;BME280_pressure;Samples;Min_cycle;Max_cycle;Signal;HPM_P1;HPM_P2
2023/04/24 00:00:15;;;;;;;4.95;3.15;;;24.20;48.80;;;;;;5037579;28;20060;-68
2023/04/24 00:02:46;;;;;;;6.32;3.08;;;24.10;48.80;;;;;;5036532;28;20033;-69
2023/04/24 00:05:13;;;;;;;5.60;3.10;;;24.10;48.80;;;;;;5039421;28;20024;-69
2023/04/24 00:07:40;;;;;;;5.30;2.90;;;24.10;48.80;;;;;;5039682;28;20087;-69
2023/04/24 00:10:06;;;;;;;5.13;3.17;;;24.10;48.80;;;;;;5036282;28;20025;-68
2023/04/24 00:12:32;;;;;;;5.82;2.95;;;24.10;48.80;;;;;;5037323;28;20051;-68
2023/04/24 00:14:57;;;;;;;5.55;3.10;;;24.10;48.80;;;;;;5043119;28;20056;-68
2023/04/24 00:17:23;;;;;;;5.32;2.78;;;24.10;49.40;;;;;;5037320;28;20469;-68
2023/04/24 00:19:51;;;;;;;4.80;2.95;;;24.10;48.80;;;;;;5039881;28;20043;-68
2023/04/24 00:22:17;;;;;;;5.13;2.95;;;24.10;48.80;;;;;;5040323;28;20029;-68
2023/04/24 00:24:43;;;;;;;5.00;3.08;;;24.10;48.80;;;;;;5040311;28;20029;-69
2023/04/24 00:27:08;;;;;;;4.90;2.90;;;24.10;48.90;;;;;;5039509;28;20049;-69
2023/04/24 00:29:34;;;;;;;5.25;3.08;;;24.10;48.80;;;;;;5038188;28;20029;-69
2023/04/24 00:32:00;;;;;;;5.13;3.17;;;24.10;48.90;;;;;;5035841;28;20025;-69
2023/04/24 00:34:25;;;;;;;4.45;2.60;;;24.10;48.90;;;;;;5037125;28;20063;-69
2023/04/24 00:36:52;;;;;;;5.40;3.08;;;24.00;48.80;;;;;;5037120;28;20056;-69
2023/04/24 00:39:21;;;;;;;4.95;3.17;;;24.00;48.80;;;;;;5036380;28;20029;-69
2023/04/24 00:41:47;;;;;;;5.82;3.05;;;24.00;48.80;;;;;;5037130;28;20485;-69
2023/04/24 00:44:13;;;;;;;5.13;3.05;;;24.00;48.80;;;;;;5040874;28;20057;-68
2023/04/24 00:46:39;;;;;;;4.38;2.67;;;24.00;48.80;;;;;;5039070;28;20482;-69
2023/04/24 00:49:05;;;;;;;4.35;2.65;;;24.00;48.80;;;;;;5040396;28;20090;-69
2023/04/24 00:51:32;;;;;;;4.40;2.45;;;24.00;48.80;;;;;;5040034;28;20089;-69
2023/04/24 00:53:58;;;;;;;4.70;2.90;;;24.00;48.90;;;;;;5042746;28;20044;-69
2023/04/24 00:56:24;;;;;;;5.05;2.70;;;24.00;48.90;;;;;;5041056;28;20414;-69
2023/04/24 00:58:50;;;;;;;5.28;2.70;;;23.90;48.80;;;;;;5042343;28;20063;-69
2023/04/24 01:01:16;;;;;;;5.22;2.88;;;23.90;48.80;;;;;;5042630;28;20021;-68
2023/04/24 01:03:42;;;;;;;4.72;2.92;;;24.00;48.90;;;;;;5040152;28;20025;-69
2023/04/24 01:06:10;;;;;;;6.00;2.80;;;23.90;48.90;;;;;;5040366;28;20029;-69
2023/04/24 01:08:36;;;;;;;4.95;2.83;;;23.90;48.90;;;;;;5040884;28;20053;-69
2023/04/24 01:11:03;;;;;;;6.00;2.70;;;23.90;48.90;;;;;;5039207;28;20044;-68
2023/04/24 01:13:29;;;;;;;4.97;2.67;;;23.90;48.90;;;;;;5041804;28;20489;-68
2023/04/24 01:15:55;;;;;;;4.60;2.70;;;23.90;48.90;;;;;;5041267;28;20032;-69
2023/04/24 01:18:21;;;;;;;3.95;2.53;;;23.90;48.90;;;;;;5041902;28;20603;-69
2023/04/24 01:20:50;;;;;;;3.92;2.47;;;23.90;48.90;;;;;;5043570;28;20095;-68
2023/04/24 01:23:17;;;;;;;5.15;2.95;;;23.90;48.90;;;;;;5039869;28;20029;-69
2023/04/24 01:25:43;;;;;;;4.82;2.80;;;23.90;48.90;;;;;;5037869;28;20041;-69
2023/04/24 01:28:08;;;;;;;4.75;2.60;;;23.90;48.90;;;;;;5040683;28;20050;-69
2023/04/24 01:30:34;;;;;;;4.88;2.60;;;23.90;49.00;;;;;;5041338;28;20052;-69
2023/04/24 01:33:00;;;;;;;4.30;2.60;;;23.90;49.00;;;;;;5042337;28;20095;-69
2023/04/24 01:35:26;;;;;;;4.25;2.60;;;23.90;49.00;;;;;;5041678;28;20032;-68
2023/04/24 01:37:52;;;;;;;4.40;2.60;;;23.90;49.00;;;;;;5041899;28;20033;-69
2023/04/24 01:40:18;;;;;;;4.78;2.50;;;23.80;48.90;;;;;;5041297;28;20119;-68
2023/04/24 01:42:43;;;;;;;4.13;2.40;;;23.80;48.90;;;;;;5041099;28;20068;-68
2023/04/24 01:45:12;;;;;;;4.45;2.58;;;23.80;49.00;;;;;;5041130;28;20041;-69
2023/04/24 01:47:39;;;;;;;4.00;2.63;;;23.80;48.90;;;;;;5041359;28;20171;-69
2023/04/24 01:50:05;;;;;;;4.43;2.80;;;23.80;48.90;;;;;;5041373;28;20084;-69
2023/04/24 01:52:33;;;;;;;5.25;2.83;;;23.80;48.90;;;;;;5041948;28;20096;-69
2023/04/24 01:55:03;;;;;;;5.63;2.58;;;23.80;48.90;;;;;;5040628;28;20032;-68
2023/04/24 01:57:30;;;;;;;4.78;2.33;;;23.80;49.00;;;;;;5039062;28;20055;-69
2023/04/24 01:59:56;;;;;;;4.03;2.58;;;23.80;48.90;;;;;;5041056;28;20098;-68
2023/04/24 02:02:23;;;;;;;3.72;2.22;;;23.80;49.00;;;;;;5040705;28;20063;-69
2023/04/24 02:04:49;;;;;;;4.07;2.40;;;23.80;49.00;;;;;;5042120;28;20048;-68
2023/04/24 02:07:15;;;;;;;4.78;2.40;;;23.80;49.00;;;;;;5040341;28;20091;-68
2023/04/24 02:09:41;;;;;;;4.53;2.50;;;23.80;49.00;;;;;;5040511;28;20058;-68
2023/04/24 02:12:07;;;;;;;4.55;2.70;;;23.80;49.00;;;;;;5039752;28;20035;-68
2023/04/24 02:14:32;;;;;;;4.20;2.50;;;23.70;48.90;;;;;;5037366;28;20022;-69
2023/04/24 02:16:58;;;;;;;4.05;2.40;;;23.70;49.00;;;;;;5042384;28;20021;-69
2023/04/24 02:19:24;;;;;;;4.20;2.20;;;23.70;48.90;;;;;;5041528;28;20040;-69
2023/04/24 02:21:49;;;;;;;3.63;2.30;;;23.70;48.90;;;;;;5040494;28;20031;-69
2023/04/24 02:24:15;;;;;;;3.67;2.22;;;23.70;49.00;;;;;;5040396;28;20030;-69
2023/04/24 02:26:41;;;;;;;3.40;2.08;;;23.70;49.00;;;;;;5040347;28;20021;-69
2023/04/24 02:29:06;;;;;;;3.35;1.95;;;23.70;49.00;;;;;;5041734;28;20041;-68
2023/04/24 02:31:32;;;;;;;3.97;2.30;;;23.70;49.00;;;;;;5039449;28;20107;-68
2023/04/24 02:33:58;;;;;;;4.03;2.25;;;23.70;49.00;;;;;;5040966;28;20096;-68
2023/04/24 02:36:23;;;;;;;4.13;2.40;;;23.70;49.00;;;;;;5040773;28;20025;-69
2023/04/24 02:38:49;;;;;;;3.55;2.20;;;23.70;49.00;;;;;;5041397;28;20040;-68
2023/04/24 02:41:14;;;;;;;3.92;2.22;;;23.70;49.00;;;;;;5040238;28;20025;-69
2023/04/24 02:43:40;;;;;;;3.45;2.28;;;23.70;49.00;;;;;;5036201;28;20034;-69
2023/04/24 02:46:06;;;;;;;3.90;2.40;;;23.70;49.00;;;;;;5041959;28;20030;-68
2023/04/24 02:48:31;;;;;;;3.70;2.15;;;23.70;49.00;;;;;;5042180;28;20070;-68
2023/04/24 02:50:57;;;;;;;3.80;2.22;;;23.70;49.00;;;;;;5039063;28;20387;-68
2023/04/24 02:53:23;;;;;;;3.78;2.03;;;23.70;49.00;;;;;;5039501;28;20028;-69
2023/04/24 02:55:49;;;;;;;3.95;2.28;;;23.60;49.00;;;;;;5041573;28;20026;-68
2023/04/24 02:58:15;;;;;;;4.45;2.40;;;23.60;49.00;;;;;;5038489;28;20102;-68
2023/04/24 03:00:41;;;;;;;3.33;2.10;;;23.60;49.00;;;;;;5037941;28;20026;-69
2023/04/24 03:03:07;;;;;;;3.50;2.10;;;23.60;49.00;;;;;;5039431;28;20025;-68
2023/04/24 03:05:32;;;;;;;3.60;2.20;;;23.60;49.00;;;;;;5036692;28;20025;-69
2023/04/24 03:07:58;;;;;;;3.75;1.98;;;23.60;49.00;;;;;;5041455;28;20025;-68
2023/04/24 03:10:24;;;;;;;3.95;2.20;;;23.70;49.10;;;;;;5040773;28;20520;-68
2023/04/24 03:12:50;;;;;;;3.05;2.00;;;23.60;49.00;;;;;;5038577;28;20029;-68
2023/04/24 03:15:15;;;;;;;4.03;2.20;;;23.60;49.00;;;;;;5037809;28;20037;-69
2023/04/24 03:17:41;;;;;;;4.88;2.38;;;23.60;49.00;;;;;;5038425;28;20106;-68
2023/04/24 03:20:10;;;;;;;3.28;2.00;;;23.60;49.00;;;;;;5037983;28;20028;-68
2023/04/24 03:22:36;;;;;;;3.45;2.20;;;23.60;49.00;;;;;;5037848;28;20025;-69
2023/04/24 03:25:01;;;;;;;3.47;1.75;;;23.60;49.10;;;;;;5038930;28;20041;-68
2023/04/24 03:27:27;;;;;;;3.40;2.00;;;23.60;49.00;;;;;;5037091;28;20026;-69
2023/04/24 03:29:55;;;;;;;3.38;1.80;;;23.60;49.10;;;;;;5038129;28;20132;-68
2023/04/24 03:32:22;;;;;;;3.50;1.90;;;23.50;49.00;;;;;;5038538;28;20060;-69
2023/04/24 03:34:47;;;;;;;3.67;2.13;;;23.60;49.00;;;;;;5038777;28;20096;-69
2023/04/24 03:37:13;;;;;;;3.17;1.92;;;23.60;49.10;;;;;;5036533;28;20025;-68
2023/04/24 03:39:39;;;;;;;3.65;2.00;;;23.60;49.10;;;;;;5038173;28;20040;-69
2023/04/24 03:42:04;;;;;;;3.85;2.10;;;23.50;49.00;;;;;;5036562;28;20170;-68
2023/04/24 03:44:30;;;;;;;4.22;2.35;;;23.50;49.00;;;;;;5036380;28;20436;-68
2023/04/24 03:46:57;;;;;;;3.40;1.98;;;23.50;49.00;;;;;;5035294;28;20392;-68
2023/04/24 03:49:23;;;;;;;3.75;2.00;;;23.50;49.00;;;;;;5037836;28;20036;-68
2023/04/24 03:51:48;;;;;;;3.42;2.08;;;23.50;49.00;;;;;;5036755;28;20433;-68
2023/04/24 03:54:14;;;;;;;3.47;1.90;;;23.50;49.00;;;;;;5038652;28;20013;-69
2023/04/24 03:56:40;;;;;;;3.10;1.88;;;23.50;49.00;;;;;;5037680;28;20025;-68
2023/04/24 03:59:05;;;;;;;3.70;2.10;;;23.50;49.10;;;;;;5041368;28;20033;-68
2023/04/24 04:01:31;;;;;;;2.78;1.65;;;23.50;49.00;;;;;;5036648;28;20064;-68
2023/04/24 04:03:56;;;;;;;4.38;2.08;;;23.50;49.10;;;;;;5037705;28;20029;-68
2023/04/24 04:06:22;;;;;;;3.30;1.90;;;23.50;49.00;;;;;;5039276;28;20065;-68
2023/04/24 04:08:48;;;;;;;3.20;1.85;;;23.50;49.10;;;;;;5040147;28;20037;-68
2023/04/24 04:11:13;;;;;;;3.92;2.00;;;23.50;49.10;;;;;;5035817;28;20068;-69
2023/04/24 04:13:39;;;;;;;3.30;1.90;;;23.50;49.10;;;;;;5036237;28;20082;-68
2023/04/24 04:16:05;;;;;;;3.60;2.00;;;23.50;49.10;;;;;;5038656;28;20029;-69
2023/04/24 04:18:30;;;;;;;2.90;1.77;;;23.50;49.10;;;;;;5036163;28;20460;-69
2023/04/24 04:20:56;;;;;;;3.10;1.88;;;23.50;49.10;;;;;;5036174;28;20464;-70
2023/04/24 04:23:22;;;;;;;2.78;1.60;;;23.50;49.10;;;;;;5037463;28;20043;-69
2023/04/24 04:25:49;;;;;;;3.10;1.90;;;23.50;49.20;;;;;;5037365;28;20025;-68
2023/04/24 04:28:15;;;;;;;2.97;1.83;;;23.50;49.20;;;;;;5037616;28;20029;-69
2023/04/24 04:30:42;;;;;;;3.10;1.90;;;23.50;49.20;;;;;;5042031;28;20073;-69
2023/04/24 04:33:08;;;;;;;3.47;1.80;;;23.50;49.20;;;;;;5038397;28;20141;-67
2023/04/24 04:35:34;;;;;;;3.30;1.90;;;23.50;49.20;;;;;;5036186;28;20136;-68
2023/04/24 04:38:00;;;;;;;2.83;1.70;;;23.40;49.20;;;;;;5037931;28;20111;-69
2023/04/24 04:40:27;;;;;;;3.70;1.70;;;23.50;49.20;;;;;;5037588;28;20026;-68
2023/04/24 04:42:53;;;;;;;3.15;1.90;;;23.40;49.10;;;;;;5034313;28;20799;-67
2023/04/24 04:45:20;;;;;;;2.95;1.65;;;23.40;49.10;;;;;;5035768;28;20091;-68
2023/04/24 04:47:46;;;;;;;3.03;1.60;;;23.40;49.10;;;;;;5037086;28;20049;-68
2023/04/24 04:50:11;;;;;;;2.22;1.50;;;23.40;49.10;;;;;;5037974;28;20484;-67
2023/04/24 04:52:37;;;;;;;3.28;1.63;;;23.40;49.10;;;;;;5038062;28;20465;-68
2023/04/24 04:55:03;;;;;;;3.45;1.70;;;23.40;49.10;;;;;;5035847;28;20029;-68
2023/04/24 04:57:28;;;;;;;2.97;1.60;;;23.40;49.10;;;;;;5034154;28;20092;-68
2023/04/24 04:59:54;;;;;;;3.10;1.60;;;23.40;49.00;;;;;;5037212;28;20450;-68
2023/04/24 05:02:20;;;;;;;2.92;1.80;;;23.40;49.10;;;;;;5038319;28;20114;-68
2023/04/24 05:04:46;;;;;;;2.55;1.60;;;23.40;49.10;;;;;;5035389;28;20025;-68
2023/04/24 05:07:11;;;;;;;2.33;1.42;;;23.40;49.20;;;;;;5038128;28;20036;-68
2023/04/24 05:09:37;;;;;;;2.42;1.60;;;23.40;49.10;;;;;;5035680;28;20370;-68
2023/04/24 05:12:03;;;;;;;2.05;1.45;;;23.40;49.10;;;;;;5036638;28;20095;-68
2023/04/24 05:14:29;;;;;;;2.63;1.30;;;23.40;49.10;;;;;;5035563;28;20017;-68
2023/04/24 05:16:54;;;;;;;2.90;1.65;;;23.40;49.10;;;;;;5037898;28;20080;-68
2023/04/24 05:19:20;;;;;;;2.90;1.60;;;23.40;49.10;;;;;;5037801;28;20037;-68
2023/04/24 05:21:46;;;;;;;3.22;1.50;;;23.40;49.10;;;;;;5037671;28;20099;-68
2023/04/24 05:24:11;;;;;;;2.72;1.50;;;23.40;49.10;;;;;;5039106;28;20083;-66
2023/04/24 05:26:37;;;;;;;2.90;1.45;;;23.40;49.10;;;;;;5036424;28;20366;-67
2023/04/24 05:29:03;;;;;;;2.80;1.50;;;23.40;49.10;;;;;;5037125;28;20116;-67
2023/04/24 05:31:29;;;;;;;3.35;1.90;;;23.40;49.10;;;;;;5036676;28;20033;-66
2023/04/24 05:33:55;;;;;;;2.60;1.48;;;23.40;49.10;;;;;;5041393;28;20473;-67
2023/04/24 05:36:20;;;;;;;2.80;1.50;;;23.40;49.10;;;;;;5040863;28;20036;-67
2023/04/24 05:38:46;;;;;;;2.50;1.40;;;23.40;49.10;;;;;;5042610;28;20032;-66
2023/04/24 05:41:11;;;;;;;3.38;1.60;;;23.40;49.10;;;;;;5041711;28;20499;-67
2023/04/24 05:43:37;;;;;;;3.22;1.70;;;23.30;49.10;;;;;;5038667;28;20024;-67
2023/04/24 05:46:03;;;;;;;2.97;1.70;;;23.30;49.10;;;;;;5039924;28;20022;-67
2023/04/24 05:48:28;;;;;;;3.97;1.50;;;23.30;49.10;;;;;;5040322;28;20052;-67
2023/04/24 05:50:54;;;;;;;3.50;1.60;;;23.40;49.10;;;;;;5040027;28;20094;-67
2023/04/24 05:53:19;;;;;;;2.65;1.50;;;23.40;49.10;;;;;;5039927;28;20117;-67
2023/04/24 05:55:45;;;;;;;2.67;1.45;;;23.30;49.10;;;;;;5039818;28;20490;-67
2023/04/24 05:58:12;;;;;;;3.50;1.75;;;23.30;49.10;;;;;;5038134;28;20566;-67
2023/04/24 06:00:39;;;;;;;4.90;1.75;;;23.30;49.10;;;;;;5039317;28;20037;-67
2023/04/24 06:03:05;;;;;;;3.53;1.52;;;23.30;49.00;;;;;;5046167;28;20883;-67
2023/04/24 06:05:31;;;;;;;3.13;1.67;;;23.30;49.10;;;;;;5039421;28;20024;-67
2023/04/24 06:07:56;;;;;;;3.75;1.35;;;23.30;49.00;;;;;;5040620;28;20723;-67
2023/04/24 06:10:22;;;;;;;3.40;1.40;;;23.30;49.10;;;;;;5041733;28;20510;-67
2023/04/24 06:12:47;;;;;;;3.28;1.70;;;23.30;49.10;;;;;;5040090;28;20025;-66
2023/04/24 06:15:13;;;;;;;4.22;1.95;;;23.30;49.10;;;;;;5039233;28;20067;-67
2023/04/24 06:17:39;;;;;;;3.60;1.83;;;23.30;49.00;;;;;;5040037;28;20102;-67
2023/04/24 06:20:06;;;;;;;2.92;1.60;;;23.30;49.00;;;;;;5042559;28;20394;-67
2023/04/24 06:22:32;;;;;;;3.63;1.80;;;23.30;49.00;;;;;;5039775;28;20120;-67
2023/04/24 06:24:57;;;;;;;4.63;1.98;;;23.30;49.00;;;;;;5039622;28;20104;-66
2023/04/24 06:27:23;;;;;;;3.50;1.60;;;23.30;49.00;;;;;;5039628;28;20033;-66
2023/04/24 06:29:54;;;;;;;4.22;1.90;;;23.30;49.00;;;;;;5038684;28;20032;-67
2023/04/24 06:32:22;;;;;;;3.33;1.70;;;23.30;49.00;;;;;;5040439;28;20354;-67
2023/04/24 06:34:47;;;;;;;4.10;1.80;;;23.30;49.00;;;;;;5041090;28;20021;-67
2023/04/24 06:37:14;;;;;;;4.13;1.50;;;23.30;49.00;;;;;;5039872;28;20055;-67
2023/04/24 06:39:39;;;;;;;3.70;1.80;;;23.20;49.00;;;;;;5040877;28;20091;-67
2023/04/24 06:42:05;;;;;;;3.25;1.58;;;23.30;49.00;;;;;;5042401;28;20033;-67
2023/04/24 06:44:30;;;;;;;3.13;1.65;;;23.20;49.00;;;;;;5040102;28;20060;-66
2023/04/24 06:46:56;;;;;;;3.65;1.85;;;23.30;49.00;;;;;;5039597;28;20022;-66
2023/04/24 06:49:21;;;;;;;3.65;1.70;;;23.30;49.00;;;;;;5040719;28;20029;-67
2023/04/24 06:51:47;;;;;;;3.88;1.60;;;23.20;49.00;;;;;;5035864;28;20032;-67
2023/04/24 06:54:13;;;;;;;3.42;1.60;;;23.20;49.00;;;;;;5036650;28;20557;-66
2023/04/24 06:56:38;;;;;;;3.88;1.80;;;23.20;49.50;;;;;;5040372;28;20025;-66
2023/04/24 06:59:04;;;;;;;2.97;1.50;;;23.20;49.00;;;;;;5037973;28;20065;-67
2023/04/24 07:01:30;;;;;;;3.70;1.50;;;23.20;49.00;;;;;;5035372;28;20060;-67
2023/04/24 07:03:55;;;;;;;3.92;1.90;;;23.20;49.00;;;;;;5036326;28;20136;-65
2023/04/24 07:06:22;;;;;;;5.22;1.75;;;23.20;49.00;;;;;;5038752;28;20040;-65
2023/04/24 07:08:48;;;;;;;3.38;1.63;;;23.20;49.00;;;;;;5038732;28;20080;-65
2023/04/24 07:11:14;;;;;;;4.28;1.90;;;23.20;49.00;;;;;;5039331;28;20068;-65
2023/04/24 07:13:41;;;;;;;2.80;1.48;;;23.20;49.00;;;;;;5037265;28;20026;-65
2023/04/24 07:16:08;;;;;;;3.65;1.70;;;23.20;49.00;;;;;;5038502;28;20022;-66
2023/04/24 07:18:33;;;;;;;4.30;1.80;;;23.20;49.00;;;;;;5037919;28;20021;-66
2023/04/24 07:20:59;;;;;;;4.30;1.75;;;23.20;49.00;;;;;;5036209;28;20400;-66
2023/04/24 07:23:25;;;;;;;4.82;1.90;;;23.20;49.00;;;;;;5037769;28;20164;-66
2023/04/24 07:25:50;;;;;;;3.38;1.90;;;23.10;49.00;;;;;;5035330;28;20028;-66
2023/04/24 07:28:17;;;;;;;3.97;1.70;;;23.20;49.00;;;;;;5037981;28;20043;-66
2023/04/24 07:30:43;;;;;;;3.22;1.60;;;23.20;49.00;;;;;;5040755;28;20449;-65
2023/04/24 07:33:11;;;;;;;3.25;1.60;;;23.20;49.00;;;;;;5037629;28;20025;-66
2023/04/24 07:35:36;;;;;;;3.97;1.90;;;23.10;49.00;;;;;;5039811;28;20025;-66
2023/04/24 07:38:02;;;;;;;3.78;1.65;;;23.20;49.00;;;;;;5036387;28;20499;-66
2023/04/24 07:40:28;;;;;;;3.53;1.50;;;23.10;49.00;;;;;;5039316;28;20123;-66
2023/04/24 07:42:53;;;;;;;2.63;1.40;;;23.10;48.90;;;;;;5037797;28;20036;-66
2023/04/24 07:45:19;;;;;;;3.00;1.50;;;23.10;49.00;;;;;;5039252;28;20195;-66
2023/04/24 07:47:45;;;;;;;3.97;1.70;;;23.10;49.00;;;;;;5036361;28;20025;-66
2023/04/24 07:50:12;;;;;;;3.10;1.40;;;23.10;49.00;;;;;;5037826;28;20040;-66
2023/04/24 07:52:38;;;;;;;2.80;1.50;;;23.10;49.10;;;;;;5039458;28;20058;-66
2023/04/24 07:55:04;;;;;;;3.70;1.80;;;23.10;49.10;;;;;;5037397;28;20560;-66
2023/04/24 07:57:30;;;;;;;3.67;1.70;;;23.10;49.00;;;;;;5037977;28;20029;-66
2023/04/24 07:59:55;;;;;;;3.78;1.60;;;23.10;49.00;;;;;;5037888;28;20056;-67
2023/04/24 08:02:26;;;;;;;4.43;1.80;;;23.10;49.60;;;;;;5037402;28;20498;-66
2023/04/24 08:04:55;;;;;;;2.83;1.73;;;23.10;49.10;;;;;;5039732;28;20024;-66
2023/04/24 08:07:21;;;;;;;3.50;1.60;;;23.10;49.10;;;;;;5038642;28;20045;-66
2023/04/24 08:09:46;;;;;;;3.20;1.65;;;23.00;49.00;;;;;;5033100;28;20391;-66
2023/04/24 08:12:15;;;;;;;2.88;1.40;;;23.10;49.10;;;;;;5038147;28;20052;-66
2023/04/24 08:14:40;;;;;;;4.18;1.83;;;23.00;49.00;;;;;;5035285;28;20021;-66
2023/04/24 08:17:06;;;;;;;3.40;1.73;;;23.00;49.10;;;;;;5040257;28;20040;-67
2023/04/24 08:19:31;;;;;;;3.22;1.83;;;23.00;49.10;;;;;;5037993;28;20028;-67
2023/04/24 08:21:57;;;;;;;3.25;1.73;;;23.00;49.00;;;;;;5038681;28;20029;-67
2023/04/24 08:24:23;;;;;;;3.15;1.60;;;23.00;49.00;;;;;;5037652;28;20534;-67
2023/04/24 08:26:53;;;;;;;2.85;1.40;;;23.00;49.00;;;;;;5037170;28;20130;-66
2023/04/24 08:29:19;;;;;;;3.80;1.70;;;23.00;49.10;;;;;;5032302;28;20037;-66
2023/04/24 08:31:44;;;;;;;4.25;1.83;;;23.00;49.10;;;;;;5037489;28;20319;-67
2023/04/24 08:34:10;;;;;;;2.88;1.58;;;23.00;49.10;;;;;;5037656;28;20055;-66
2023/04/24 08:36:37;;;;;;;2.78;1.52;;;23.00;49.10;;;;;;5037765;28;20025;-67
2023/04/24 08:39:02;;;;;;;3.85;1.67;;;23.00;49.10;;;;;;5035538;28;20108;-67
2023/04/24 08:41:28;;;;;;;3.33;1.60;;;23.00;49.10;;;;;;5039746;28;20108;-67
2023/04/24 08:43:54;;;;;;;4.38;1.70;;;23.00;49.00;;;;;;5037223;28;20052;-67
2023/04/24 08:46:21;;;;;;;3.10;1.65;;;23.00;49.00;;;;;;5039068;28;20421;-67
2023/04/24 08:48:48;;;;;;;2.75;1.58;;;23.00;49.00;;;;;;5037702;28;20449;-67
2023/04/24 08:51:15;;;;;;;2.40;1.33;;;23.00;49.00;;;;;;5037637;28;20422;-67
2023/04/24 08:53:40;;;;;;;3.30;1.70;;;22.90;49.00;;;;;;5038548;28;20059;-67
2023/04/24 08:56:07;;;;;;;3.90;2.05;;;23.00;49.10;;;;;;5037977;28;20454;-67
2023/04/24 08:58:33;;;;;;;3.30;1.80;;;22.90;49.10;;;;;;5035680;28;20033;-67
2023/04/24 09:00:59;;;;;;;2.63;1.42;;;23.00;49.10;;;;;;5033981;28;20025;-67
2023/04/24 09:03:27;;;;;;;2.95;1.60;;;22.90;49.00;;;;;;5036352;28;20044;-67
2023/04/24 09:05:55;;;;;;;3.05;1.48;;;22.90;49.10;;;;;;5038981;28;20326;-67
2023/04/24 09:08:23;;;;;;;3.40;1.50;;;22.90;49.10;;;;;;5040058;28;20034;-67
2023/04/24 09:10:49;;;;;;;4.00;1.67;;;22.90;49.10;;;;;;5073313;28;20480;-68
2023/04/24 09:13:15;;;;;;;3.78;1.60;;;22.90;49.10;;;;;;5039069;28;20063;-67
2023/04/24 09:15:41;;;;;;;2.72;1.50;;;22.90;49.10;;;;;;5040068;28;20071;-67
2023/04/24 09:18:07;;;;;;;2.70;1.55;;;22.90;49.10;;;;;;5038092;28;20393;-66
2023/04/24 09:20:33;;;;;;;2.95;1.50;;;22.90;49.10;;;;;;5042879;28;20079;-67
2023/04/24 09:22:59;;;;;;;3.17;1.60;;;22.90;49.10;;;;;;5040909;28;20389;-67
2023/04/24 09:25:38;;;;;;;3.45;1.60;;;22.90;49.10;;;;;;5041537;28;20025;-67
2023/04/24 09:28:05;;;;;;;3.38;1.85;;;22.90;49.10;;;;;;5039470;28;20484;-66
2023/04/24 09:30:31;;;;;;;3.05;1.50;;;22.90;49.10;;;;;;5039314;28;20482;-66
2023/04/24 09:33:14;;;;;;;2.97;1.40;;;22.90;49.10;;;;;;5041143;28;20121;-67
2023/04/24 09:35:48;;;;;;;3.20;1.50;;;22.90;49.20;;;;;;5041756;28;20618;-66
2023/04/24 09:38:14;;;;;;;3.13;1.60;;;22.90;49.10;;;;;;5042086;28;20021;-67
2023/04/24 09:40:40;;;;;;;3.17;1.50;;;22.90;49.20;;;;;;5041419;28;20489;-67
2023/04/24 09:43:11;;;;;;;2.40;1.40;;;22.90;49.20;;;;;;5041224;28;20337;-67
2023/04/24 09:45:38;;;;;;;3.17;1.60;;;22.90;49.20;;;;;;5039732;28;20034;-66
2023/04/24 09:48:06;;;;;;;2.70;1.60;;;22.90;49.20;;;;;;5041197;28;20045;-67
2023/04/24 09:50:34;;;;;;;3.30;1.40;;;22.90;49.20;;;;;;5042739;28;20031;-66
2023/04/24 09:53:03;;;;;;;3.08;1.70;;;22.90;49.20;;;;;;5041155;28;20102;-67
2023/04/24 09:55:29;;;;;;;;;;;22.90;49.20;;;;;;5041757;28;20391;-67
2023/04/24 09:58:00;;;;;;;2.80;1.60;;;22.90;49.20;;;;;;5040066;28;19913;-67
2023/04/24 10:00:28;;;;;;;3.28;1.52;;;22.90;49.20;;;;;;5040733;28;20034;-68
2023/04/24 10:02:58;;;;;;;2.78;1.50;;;22.80;49.10;;;;;;5038440;28;20021;-67
2023/04/24 10:05:34;;;;;;;3.20;1.65;;;22.80;49.10;;;;;;5039254;28;20453;-67
2023/04/24 10:08:04;;;;;;;3.10;1.40;;;22.80;49.10;;;;;;5041421;28;20492;-67
2023/04/24 10:10:31;;;;;;;2.75;1.55;;;22.80;49.10;;;;;;5041915;28;20469;-67
2023/04/24 10:12:57;;;;;;;2.65;1.25;;;22.80;49.10;;;;;;5037136;28;20089;-67
2023/04/24 10:15:22;;;;;;;2.53;1.40;;;22.80;49.00;;;;;;5038672;28;20103;-67
2023/04/24 10:17:52;;;;;;;2.15;1.30;;;22.90;49.00;;;;;;5040479;28;20025;-67
2023/04/24 10:20:26;;;;;;;2.67;1.38;;;22.90;49.00;;;;;;5047675;28;20449;-67
2023/04/24 10:22:53;;;;;;;2.47;1.40;;;22.80;48.90;;;;;;5039260;28;20033;-67
2023/04/24 10:25:21;;;;;;;3.13;1.67;;;22.80;48.90;;;;;;5039691;28;20548;-67
2023/04/24 10:27:47;;;;;;;2.47;1.40;;;22.80;48.90;;;;;;5070560;28;20064;-67
2023/04/24 10:30:14;;;;;;;2.75;1.45;;;22.80;48.90;;;;;;5038695;28;20039;-68
2023/04/24 10:32:40;;;;;;;2.90;1.33;;;22.80;48.80;;;;;;5040109;28;20055;-68
2023/04/24 10:35:10;;;;;;;2.67;1.40;;;22.80;48.80;;;;;;5043118;28;20491;-68
2023/04/24 10:37:40;;;;;;;2.38;1.20;;;22.80;48.80;;;;;;5040244;28;20052;-67
2023/04/24 10:40:08;;;;;;;2.22;1.17;;;22.80;48.80;;;;;;5042929;28;20350;-68
2023/04/24 10:42:34;;;;;;;2.50;1.42;;;22.90;48.80;;;;;;5037523;28;20104;-67
2023/04/24 10:45:04;;;;;;;2.33;1.30;;;22.80;48.80;;;;;;5039698;28;20521;-67
2023/04/24 10:47:39;;;;;;;2.05;1.10;;;22.80;48.80;;;;;;5041587;28;20021;-68
2023/04/24 10:50:10;;;;;;;2.17;1.27;;;22.80;48.80;;;;;;5042097;28;20850;-68
2023/04/24 10:52:50;;;;;;;2.15;1.30;;;22.80;48.70;;;;;;5042511;28;20804;-68
2023/04/24 10:55:25;;;;;;;2.13;1.20;;;22.80;48.70;;;;;;5042894;28;20025;-68
2023/04/24 10:58:04;;;;;;;1.95;1.20;;;22.80;48.70;;;;;;5038016;28;20805;-68
2023/04/24 11:00:29;;;;;;;2.05;1.15;;;22.80;48.70;;;;;;5038796;28;20485;-68
2023/04/24 11:02:55;;;;;;;2.22;1.10;;;22.80;48.60;;;;;;5038699;28;20029;-68
2023/04/24 11:05:22;;;;;;;2.40;1.25;;;22.80;48.70;;;;;;5039427;28;20025;-68
2023/04/24 11:08:15;;;;;;;2.47;1.13;;;22.80;48.70;;;;;;5039163;28;20029;-68
2023/04/24 11:10:45;;;;;;;2.47;1.20;;;22.80;48.60;;;;;;5029532;28;21047;-68
2023/04/24 11:13:15;;;;;;;2.17;1.30;;;22.80;48.70;;;;;;5036746;28;20132;-68
2023/04/24 11:15:42;;;;;;;3.75;1.20;;;22.80;48.70;;;;;;5044288;28;20493;-68
2023/04/24 11:18:13;;;;;;;2.55;1.30;;;22.80;48.60;;;;;;5036703;28;20040;-67
2023/04/24 11:20:43;;;;;;;2.58;1.33;;;22.80;48.60;;;;;;5040433;28;20029;-68
2023/04/24 11:23:08;;;;;;;2.35;1.35;;;22.80;48.60;;;;;;5040602;28;20025;-67
2023/04/24 11:25:35;;;;;;;3.17;1.10;;;22.80;48.60;;;;;;5038662;28;20083;-68
2023/04/24 11:28:05;;;;;;;3.08;1.40;;;22.80;48.60;;;;;;5036770;28;20040;-68
2023/04/24 11:30:35;;;;;;;2.15;1.30;;;22.70;48.60;;;;;;5038294;28;20394;-68
2023/04/24 11:33:04;;;;;;;;;;;22.80;48.60;;;;;;5041260;28;20132;-68
2023/04/24 11:35:37;;;;;;;2.65;1.30;;;22.80;48.60;;;;;;5037454;28;20047;-68
2023/04/24 11:38:04;;;;;;;2.78;1.25;;;22.80;48.60;;;;;;5037206;28;20555;-69
2023/04/24 11:40:29;;;;;;;2.58;1.10;;;22.70;48.50;;;;;;5039744;28;20021;-69
2023/04/24 11:42:55;;;;;;;4.00;1.20;;;22.70;48.60;;;;;;5039393;28;20098;-68
2023/04/24 11:45:29;;;;;;;3.90;1.40;;;22.70;48.60;;;;;;5039259;28;20051;-69
2023/04/24 11:47:55;;;;;;;3.03;1.20;;;22.70;48.60;;;;;;5038941;28;20043;-69
2023/04/24 11:50:23;;;;;;;4.10;1.45;;;22.80;48.60;;;;;;5037854;28;20130;-68
2023/04/24 11:52:50;;;;;;;2.92;1.30;;;22.70;48.60;;;;;;5038452;28;20030;-69
2023/04/24 11:55:15;;;;;;;3.63;1.25;;;22.70;48.60;;;;;;5038263;28;20413;-69
2023/04/24 11:57:53;;;;;;;2.75;1.30;;;22.70;48.50;;;;;;5039447;28;20013;-69
2023/04/24 12:00:21;;;;;;;4.03;1.45;;;22.70;48.50;;;;;;5045477;28;20074;-68
2023/04/24 12:02:48;;;;;;;3.35;1.58;;;22.70;48.60;;;;;;5038518;28;20032;-69
2023/04/24 12:05:24;;;;;;;3.00;1.50;;;22.70;48.60;;;;;;5038533;28;20121;-68
2023/04/24 12:07:49;;;;;;;2.83;1.30;;;22.70;48.50;;;;;;5036098;28;20028;-70
2023/04/24 12:10:27;;;;;;;2.08;1.25;;;22.70;48.50;;;;;;5038298;28;20389;-70
2023/04/24 12:12:55;;;;;;;2.83;1.30;;;22.70;48.50;;;;;;5038066;28;20112;-69
2023/04/24 12:15:21;;;;;;;2.95;1.25;;;22.70;48.50;;;;;;5037403;28;20057;-70
2023/04/24 12:17:47;;;;;;;2.80;1.38;;;22.80;48.60;;;;;;5037237;28;20490;-69
2023/04/24 12:20:13;;;;;;;3.10;1.50;;;22.70;48.60;;;;;;5035348;28;20029;-69
2023/04/24 12:22:49;;;;;;;2.88;1.50;;;22.70;48.60;;;;;;5038176;28;20119;-68
2023/04/24 12:25:17;;;;;;;2.95;1.45;;;22.70;48.60;;;;;;5034432;28;20780;-69
2023/04/24 12:27:52;;;;;;;4.15;1.30;;;22.70;48.60;;;;;;5036910;28;20926;-68
2023/04/24 12:30:18;;;;;;;3.45;1.50;;;22.70;48.60;;;;;;5040322;28;20048;-68
2023/04/24 12:32:49;;;;;;;2.67;1.30;;;22.70;48.60;;;;;;5036757;28;20029;-68
2023/04/24 12:35:20;;;;;;;2.33;1.30;;;22.70;48.60;;;;;;5035752;28;20473;-68
2023/04/24 12:37:46;;;;;;;3.65;1.35;;;22.70;48.70;;;;;;5036806;28;20024;-68
2023/04/24 12:40:13;;;;;;;2.88;1.20;;;22.70;48.70;;;;;;5036564;28;20025;-68
2023/04/24 12:42:44;;;;;;;3.88;1.25;;;22.70;48.70;;;;;;5037842;28;20029;-69
2023/04/24 12:45:11;;;;;;;3.10;1.42;;;22.70;48.70;;;;;;5036851;28;20045;-68